SAS909 EKCH-KEWR
Flight info
| Callsign | SAS909 |
|---|---|
| Flight time | N/A |
| Altitude | 38000 |
| Route | GOLGA DCT KRM DCT VALDI/M081F380 DCT 62N010W 61N020W 60N030W 58N040W 5430N05000W DCT PELTU/N0470F380 DCT DANOL DCT ENE DCT PWL DCT IGN DCT FLOSI FLOSI4 |
| Aircraft | A333/H-SDE3GHIJ2J3J5M1RVWXY/LB2D1 |
Departure
| Time | 2026-04-22 10:40 |
|---|---|
| Airport | Copenhagen Kastrup Airport (EKCH) |
Arrival
| Time | N/A |
|---|---|
| Airport | Newark Liberty International Airport (KEWR) |
| Time | Latitude | Longitude | Altitude | Speed | Heading |
|---|---|---|---|---|---|
| 2026-04-22 09:24 | 55.62364 | 12.65046 | 28 ft | 0 kts | 276° |
| 2026-04-22 10:29 | 55.62364 | 12.65052 | 27 ft | 2 kts | 276° |
| 2026-04-22 10:29 | 55.62362 | 12.65084 | 27 ft | 3 kts | 276° |
| 2026-04-22 10:29 | 55.62360 | 12.65120 | 27 ft | 3 kts | 276° |
| 2026-04-22 10:29 | 55.62358 | 12.65154 | 27 ft | 3 kts | 267° |
| 2026-04-22 10:30 | 55.62362 | 12.65185 | 27 ft | 3 kts | 229° |
| 2026-04-22 10:30 | 55.62375 | 12.65202 | 27 ft | 2 kts | 183° |
| 2026-04-22 10:30 | 55.62386 | 12.65202 | 27 ft | 3 kts | 178° |
| 2026-04-22 10:30 | 55.62400 | 12.65201 | 27 ft | 1 kts | 178° |
| 2026-04-22 10:31 | 55.62401 | 12.65201 | 27 ft | 0 kts | 178° |
| 2026-04-22 10:33 | 55.62400 | 12.65201 | 27 ft | 1 kts | 178° |
| 2026-04-22 10:34 | 55.62372 | 12.65203 | 27 ft | 8 kts | 178° |
| 2026-04-22 10:34 | 55.62292 | 12.65204 | 27 ft | 14 kts | 181° |
| 2026-04-22 10:34 | 55.62197 | 12.65159 | 28 ft | 15 kts | 208° |
| 2026-04-22 10:34 | 55.62101 | 12.65053 | 28 ft | 18 kts | 213° |
| 2026-04-22 10:35 | 55.61976 | 12.64909 | 27 ft | 25 kts | 212° |
| 2026-04-22 10:35 | 55.61832 | 12.64746 | 27 ft | 24 kts | 213° |
| 2026-04-22 10:35 | 55.61691 | 12.64582 | 27 ft | 24 kts | 213° |
| 2026-04-22 10:35 | 55.61553 | 12.64422 | 27 ft | 24 kts | 213° |
| 2026-04-22 10:36 | 55.61415 | 12.64264 | 27 ft | 24 kts | 213° |
| 2026-04-22 10:36 | 55.61277 | 12.64107 | 27 ft | 24 kts | 213° |
| 2026-04-22 10:36 | 55.61140 | 12.63949 | 27 ft | 24 kts | 213° |
| 2026-04-22 10:36 | 55.61003 | 12.63791 | 27 ft | 23 kts | 213° |
| 2026-04-22 10:37 | 55.60866 | 12.63634 | 27 ft | 23 kts | 212° |
| 2026-04-22 10:37 | 55.60600 | 12.63305 | 27 ft | 23 kts | 220° |
| 2026-04-22 10:37 | 55.60489 | 12.63137 | 27 ft | 16 kts | 216° |
| 2026-04-22 10:38 | 55.60405 | 12.63159 | 28 ft | 12 kts | 135° |
| 2026-04-22 10:38 | 55.60349 | 12.63270 | 29 ft | 11 kts | 129° |
| 2026-04-22 10:38 | 55.60357 | 12.63377 | 30 ft | 9 kts | 43° |
| 2026-04-22 10:38 | 55.60382 | 12.63413 | 29 ft | 0 kts | 40° |
| 2026-04-22 10:39 | 55.60383 | 12.63414 | 29 ft | 2 kts | 40° |
| 2026-04-22 10:39 | 55.60515 | 12.63616 | 28 ft | 55 kts | 41° |
| 2026-04-22 10:39 | 55.60959 | 12.64304 | 28 ft | 114 kts | 41° |
| 2026-04-22 10:39 | 55.61691 | 12.65439 | 29 ft | 165 kts | 41° |
| 2026-04-22 10:40 | 55.62590 | 12.66903 | 520 ft | 178 kts | 39° |
| 2026-04-22 10:40 | 55.63504 | 12.68323 | 1474 ft | 173 kts | 36° |
| 2026-04-22 10:40 | 55.64436 | 12.69765 | 1981 ft | 186 kts | 35° |
| 2026-04-22 10:40 | 55.65535 | 12.71133 | 2316 ft | 201 kts | 18° |
| 2026-04-22 10:41 | 55.66968 | 12.71325 | 2618 ft | 219 kts | 345° |
| 2026-04-22 10:41 | 55.68403 | 12.70248 | 3163 ft | 228 kts | 340° |
| 2026-04-22 10:41 | 55.69985 | 12.69811 | 3810 ft | 234 kts | 354° |
| 2026-04-22 10:41 | 55.71625 | 12.69623 | 4460 ft | 239 kts | 356° |
| 2026-04-22 10:42 | 55.73297 | 12.69491 | 5149 ft | 243 kts | 356° |
| 2026-04-22 10:42 | 55.74997 | 12.69349 | 5841 ft | 246 kts | 356° |
| 2026-04-22 10:42 | 55.76717 | 12.69192 | 6572 ft | 249 kts | 356° |
| 2026-04-22 10:42 | 55.78457 | 12.69024 | 7196 ft | 252 kts | 356° |
| 2026-04-22 10:43 | 55.80216 | 12.68728 | 7889 ft | 256 kts | 349° |
| 2026-04-22 10:43 | 55.81884 | 12.67570 | 8596 ft | 262 kts | 328° |
| 2026-04-22 10:43 | 55.83180 | 12.65244 | 9285 ft | 272 kts | 305° |
| 2026-04-22 10:43 | 55.84008 | 12.62230 | 9989 ft | 278 kts | 296° |
| 2026-04-22 10:44 | 55.84720 | 12.58991 | 10564 ft | 286 kts | 295° |
| 2026-04-22 10:44 | 55.85452 | 12.55587 | 10856 ft | 303 kts | 295° |
| 2026-04-22 10:44 | 55.86235 | 12.51982 | 11132 ft | 321 kts | 294° |
| 2026-04-22 10:44 | 55.87069 | 12.48182 | 11375 ft | 338 kts | 294° |
| 2026-04-22 10:45 | 55.87946 | 12.44195 | 11681 ft | 352 kts | 294° |
| 2026-04-22 10:45 | 55.88852 | 12.40085 | 12192 ft | 360 kts | 294° |
| 2026-04-22 10:45 | 55.89778 | 12.35908 | 12820 ft | 364 kts | 296° |
| 2026-04-22 10:45 | 55.90959 | 12.31931 | 13450 ft | 364 kts | 306° |
| 2026-04-22 10:46 | 55.92387 | 12.28173 | 14070 ft | 367 kts | 308° |
| 2026-04-22 10:46 | 55.93872 | 12.24435 | 14638 ft | 371 kts | 308° |
| 2026-04-22 10:46 | 55.95374 | 12.20662 | 15173 ft | 375 kts | 308° |
| 2026-04-22 10:46 | 55.96885 | 12.16848 | 15749 ft | 378 kts | 308° |
| 2026-04-22 10:47 | 55.98409 | 12.12989 | 16245 ft | 383 kts | 308° |
| 2026-04-22 10:47 | 55.99950 | 12.09077 | 16764 ft | 387 kts | 308° |
| 2026-04-22 10:47 | 56.01503 | 12.05123 | 17310 ft | 390 kts | 308° |
| 2026-04-22 10:47 | 56.03179 | 12.01308 | 17854 ft | 390 kts | 317° |
| 2026-04-22 10:48 | 56.05251 | 11.98218 | 18418 ft | 386 kts | 330° |
| 2026-04-22 10:48 | 56.07546 | 11.95730 | 18953 ft | 387 kts | 333° |
| 2026-04-22 10:48 | 56.09898 | 11.93351 | 19376 ft | 390 kts | 334° |
| 2026-04-22 10:48 | 56.12276 | 11.90965 | 19809 ft | 393 kts | 334° |
| 2026-04-22 10:49 | 56.14671 | 11.88550 | 20255 ft | 396 kts | 334° |
| 2026-04-22 10:49 | 56.17079 | 11.86112 | 20686 ft | 399 kts | 334° |
| 2026-04-22 10:49 | 56.19503 | 11.83649 | 21117 ft | 402 kts | 334° |
| 2026-04-22 10:49 | 56.21942 | 11.81164 | 21547 ft | 404 kts | 334° |
| 2026-04-22 10:50 | 56.24396 | 11.78659 | 21953 ft | 407 kts | 334° |
| 2026-04-22 10:50 | 56.26868 | 11.76131 | 22374 ft | 410 kts | 334° |
| 2026-04-22 10:50 | 56.29353 | 11.73584 | 22773 ft | 413 kts | 334° |
| 2026-04-22 10:50 | 56.31838 | 11.70939 | 23148 ft | 418 kts | 330° |
| 2026-04-22 10:51 | 56.34161 | 11.67737 | 23556 ft | 424 kts | 322° |